createdAt,value
2018-11-07T00:00:48.824Z,40.90
2018-11-07T00:03:18.246Z,46.20
2018-11-07T00:05:47.310Z,43.70
2018-11-07T00:08:16.830Z,40.90
2018-11-07T00:10:46.044Z,41.00
2018-11-07T00:13:15.120Z,38.13
2018-11-07T00:15:44.237Z,42.23
2018-11-07T00:18:13.281Z,32.80
2018-11-07T00:20:42.457Z,38.47
2018-11-07T00:23:11.560Z,33.60
2018-11-07T00:25:40.665Z,35.73
2018-11-07T00:28:09.775Z,32.90
2018-11-07T00:30:38.865Z,34.97
2018-11-07T00:33:08.140Z,32.73
2018-11-07T00:35:37.209Z,32.97
2018-11-07T00:38:06.349Z,31.40
2018-11-07T00:40:35.564Z,35.10
2018-11-07T00:43:04.625Z,33.07
2018-11-07T00:45:33.754Z,34.40
2018-11-07T00:48:02.852Z,29.10
2018-11-07T00:50:31.888Z,26.67
2018-11-07T00:53:01.037Z,26.67
2018-11-07T00:55:30.110Z,23.87
2018-11-07T00:57:59.293Z,25.17
2018-11-07T01:00:28.361Z,24.87
2018-11-07T01:02:57.459Z,25.70
2018-11-07T01:05:26.560Z,25.93
2018-11-07T01:07:55.659Z,25.63
2018-11-07T01:10:24.772Z,26.90
2018-11-07T01:12:53.844Z,25.37
2018-11-07T01:15:22.960Z,22.37
2018-11-07T01:17:52.059Z,25.80
2018-11-07T01:20:21.183Z,23.60
2018-11-07T01:22:50.258Z,23.30
2018-11-07T01:25:19.298Z,24.73
2018-11-07T01:27:48.445Z,25.27
2018-11-07T01:30:17.543Z,22.43
2018-11-07T01:32:46.684Z,24.93
2018-11-07T01:35:15.770Z,21.63
2018-11-07T01:37:44.861Z,19.53
2018-11-07T01:40:14.805Z,22.07
2018-11-07T01:42:44.684Z,24.97
2018-11-07T01:45:14.232Z,22.40
2018-11-07T01:47:43.458Z,19.23
2018-11-07T01:50:13.517Z,20.73
2018-11-07T01:52:42.603Z,20.67
2018-11-07T01:55:11.998Z,21.47
2018-11-07T01:57:41.240Z,21.03
2018-11-07T02:00:12.087Z,18.50
2018-11-07T02:02:42.448Z,21.67
2018-11-07T02:05:11.612Z,21.20
2018-11-07T02:07:41.078Z,19.80
2018-11-07T02:10:11.107Z,20.83
2018-11-07T02:12:40.884Z,19.57
2018-11-07T02:15:10.738Z,21.30
2018-11-07T02:17:40.039Z,17.73
2018-11-07T02:20:10.339Z,20.60
2018-11-07T02:22:39.492Z,17.80
2018-11-07T02:25:08.738Z,21.37
2018-11-07T02:27:37.815Z,21.53
2018-11-07T02:30:09.684Z,21.37
2018-11-07T02:32:38.812Z,16.60
2018-11-07T02:35:08.031Z,22.10
2018-11-07T02:37:37.200Z,20.87
2018-11-07T02:40:06.934Z,19.20
2018-11-07T02:42:36.063Z,19.43
2018-11-07T02:45:05.473Z,19.37
2018-11-07T02:47:34.643Z,18.73
2018-11-07T02:50:03.790Z,18.20
2018-11-07T02:52:32.948Z,17.97
2018-11-07T02:55:02.069Z,17.93
2018-11-07T02:57:31.227Z,18.63
2018-11-07T03:00:00.409Z,17.07
2018-11-07T03:02:29.522Z,18.37
2018-11-07T03:04:58.652Z,21.23
2018-11-07T03:07:27.728Z,17.73
2018-11-07T03:09:56.831Z,17.53
2018-11-07T03:12:26.236Z,17.73
2018-11-07T03:14:55.314Z,16.93
2018-11-07T03:17:24.478Z,17.10
2018-11-07T03:19:53.581Z,16.80
2018-11-07T03:22:22.711Z,15.87
2018-11-07T03:24:51.833Z,14.00
2018-11-07T03:27:20.901Z,15.40
2018-11-07T03:29:49.958Z,12.00
2018-11-07T03:32:19.061Z,13.03
2018-11-07T03:34:48.320Z,12.80
2018-11-07T03:37:17.393Z,16.37
2018-11-07T03:39:46.550Z,12.90
2018-11-07T03:42:15.701Z,18.03
2018-11-07T03:44:44.758Z,16.43
2018-11-07T03:47:13.869Z,15.20
2018-11-07T03:49:42.984Z,15.20
2018-11-07T03:52:12.012Z,15.70
2018-11-07T03:54:41.132Z,14.13
2018-11-07T03:57:10.272Z,15.53
2018-11-07T03:59:39.332Z,14.97
2018-11-07T04:02:08.459Z,15.93
2018-11-07T04:04:37.552Z,14.57
2018-11-07T04:07:06.833Z,14.33
2018-11-07T04:09:35.885Z,15.60
2018-11-07T04:12:05.029Z,16.47
2018-11-07T04:14:34.105Z,16.80
2018-11-07T04:17:03.200Z,16.90
2018-11-07T04:19:32.272Z,17.73
2018-11-07T04:22:01.314Z,14.53
2018-11-07T04:24:30.380Z,17.20
2018-11-07T04:26:59.527Z,15.67
2018-11-07T04:29:28.679Z,18.50
2018-11-07T04:31:57.880Z,16.03
2018-11-07T04:34:27.124Z,17.13
2018-11-07T04:36:56.210Z,15.67
2018-11-07T04:39:25.339Z,18.97
2018-11-07T04:41:54.472Z,16.10
2018-11-07T04:44:23.561Z,19.93
2018-11-07T04:46:52.624Z,19.13
2018-11-07T04:49:21.819Z,16.80
2018-11-07T04:51:50.908Z,19.73
2018-11-07T04:54:19.984Z,17.73
2018-11-07T04:56:49.021Z,17.63
2018-11-07T04:59:18.116Z,19.07
2018-11-07T05:01:47.204Z,20.97
2018-11-07T05:04:16.276Z,19.53
2018-11-07T05:06:45.375Z,21.03
2018-11-07T05:09:14.401Z,19.97
2018-11-07T05:11:43.514Z,21.63
2018-11-07T05:14:12.655Z,17.80
2018-11-07T05:16:41.739Z,21.97
2018-11-07T05:19:10.904Z,23.27
2018-11-07T05:21:40.008Z,22.60
2018-11-07T05:24:09.178Z,22.67
2018-11-07T05:26:38.265Z,21.70
2018-11-07T05:29:07.420Z,22.73
2018-11-07T05:31:36.486Z,23.10
2018-11-07T05:34:05.731Z,24.33
2018-11-07T05:36:34.852Z,24.03
2018-11-07T05:39:04.926Z,24.57
2018-11-07T05:41:33.989Z,20.20
2018-11-07T05:44:03.089Z,23.63
2018-11-07T05:46:32.206Z,21.33
2018-11-07T05:49:01.347Z,20.87
2018-11-07T05:51:30.404Z,20.27
2018-11-07T05:53:59.455Z,20.53
2018-11-07T05:56:28.516Z,21.07
2018-11-07T05:58:57.611Z,21.90
2018-11-07T06:01:26.737Z,19.20
2018-11-07T06:03:56.479Z,18.87
2018-11-07T06:06:25.612Z,22.33
2018-11-07T06:08:54.672Z,18.07
2018-11-07T06:11:23.757Z,17.23
2018-11-07T06:13:52.985Z,16.40
2018-11-07T06:16:22.256Z,17.20
2018-11-07T06:18:51.285Z,17.07
2018-11-07T06:21:20.332Z,14.57
2018-11-07T06:23:49.377Z,16.00
2018-11-07T06:26:18.577Z,15.73
2018-11-07T06:28:47.632Z,14.60
2018-11-07T06:31:16.769Z,18.93
2018-11-07T06:33:45.841Z,16.63
2018-11-07T06:36:14.930Z,15.30
2018-11-07T06:38:44.017Z,13.13
2018-11-07T06:41:13.133Z,13.80
2018-11-07T06:43:42.193Z,11.57
2018-11-07T06:46:11.384Z,10.70
2018-11-07T06:48:40.457Z,10.77
2018-11-07T06:51:09.546Z,9.87
2018-11-07T06:53:38.658Z,15.23
2018-11-07T06:56:07.770Z,11.57
2018-11-07T06:58:36.839Z,12.20
2018-11-07T07:01:05.894Z,11.47
2018-11-07T07:03:35.007Z,14.40
2018-11-07T07:06:04.194Z,13.23
2018-11-07T07:08:33.309Z,14.40
2018-11-07T07:11:02.337Z,14.37
2018-11-07T07:13:31.548Z,11.83
2018-11-07T07:16:00.671Z,14.97
2018-11-07T07:18:29.792Z,11.53
2018-11-07T07:20:58.920Z,12.40
2018-11-07T07:23:27.976Z,14.47
2018-11-07T07:25:57.077Z,16.07
2018-11-07T07:28:26.177Z,13.27
2018-11-07T07:30:55.291Z,12.20
2018-11-07T07:33:24.415Z,13.33
2018-11-07T07:35:53.591Z,11.37
2018-11-07T07:38:22.694Z,11.70
2018-11-07T07:40:51.746Z,9.47
2018-11-07T07:43:20.864Z,7.80
2018-11-07T07:45:49.997Z,8.17
2018-11-07T07:48:19.062Z,9.57
2018-11-07T07:50:48.128Z,8.93
2018-11-07T07:53:17.265Z,9.20
2018-11-07T07:55:46.366Z,8.70
2018-11-07T07:58:15.452Z,11.70
2018-11-07T08:00:44.571Z,8.27
2018-11-07T08:03:13.732Z,9.43
2018-11-07T08:05:42.815Z,9.03
2018-11-07T08:08:11.917Z,12.37
2018-11-07T08:10:41.014Z,12.03
2018-11-07T08:13:10.160Z,8.73
2018-11-07T08:15:39.259Z,10.33
2018-11-07T08:18:08.369Z,10.27
2018-11-07T08:20:37.477Z,8.87
2018-11-07T08:23:06.660Z,7.47
2018-11-07T08:25:35.699Z,8.80
2018-11-07T08:28:04.824Z,6.97
2018-11-07T08:30:33.972Z,9.43
2018-11-07T08:33:03.099Z,9.40
2018-11-07T08:35:32.191Z,7.17
2018-11-07T08:38:01.321Z,8.23
2018-11-07T08:40:30.422Z,8.50
2018-11-07T08:42:59.474Z,8.97
2018-11-07T08:45:28.593Z,6.87
2018-11-07T08:47:57.730Z,8.43
2018-11-07T08:50:26.826Z,9.03
2018-11-07T08:52:55.919Z,9.97
2018-11-07T08:55:24.999Z,6.77
2018-11-07T08:57:54.136Z,7.40
2018-11-07T09:00:24.264Z,5.90
2018-11-07T09:02:53.582Z,6.30
2018-11-07T09:05:23.430Z,5.40
2018-11-07T09:07:52.672Z,7.47
2018-11-07T09:10:23.309Z,6.10
2018-11-07T09:12:52.561Z,4.93
2018-11-07T09:15:22.756Z,5.93
2018-11-07T09:17:51.994Z,4.60
2018-11-07T09:20:22.584Z,6.23
2018-11-07T09:22:51.843Z,5.73
2018-11-07T09:25:21.098Z,5.07
2018-11-07T09:27:50.329Z,4.33
2018-11-07T09:30:20.917Z,5.40
2018-11-07T09:32:50.304Z,10.13
2018-11-07T09:35:20.161Z,4.20
2018-11-07T09:37:49.555Z,3.50
2018-11-07T09:40:20.110Z,5.43
2018-11-07T09:42:49.879Z,7.13
2018-11-07T09:45:20.462Z,8.17
2018-11-07T09:47:49.758Z,6.67
2018-11-07T09:50:19.580Z,4.43
2018-11-07T09:52:48.870Z,5.37
2018-11-07T09:55:19.591Z,5.00
2018-11-07T09:57:48.951Z,5.80
2018-11-07T10:00:20.421Z,4.17
2018-11-07T10:02:49.737Z,4.13
2018-11-07T10:05:20.191Z,4.13
2018-11-07T10:07:49.536Z,5.63
2018-11-07T10:10:20.198Z,4.87
2018-11-07T10:12:49.656Z,4.57
2018-11-07T10:15:19.375Z,4.50
2018-11-07T10:17:48.648Z,4.50
2018-11-07T10:20:20.962Z,3.63
2018-11-07T10:22:50.709Z,3.37
2018-11-07T10:25:20.179Z,7.60
2018-11-07T10:27:49.629Z,3.47
2018-11-07T10:30:20.054Z,3.53
2018-11-07T10:32:50.308Z,9.00
2018-11-07T10:35:19.804Z,5.60
2018-11-07T10:37:49.113Z,4.40
2018-11-07T10:40:19.992Z,6.10
2018-11-07T10:42:49.447Z,4.30
2018-11-07T10:45:18.804Z,6.10
2018-11-07T10:47:48.772Z,8.53
2018-11-07T10:50:19.101Z,5.97
2018-11-07T10:52:48.736Z,7.67
2018-11-07T10:55:18.375Z,7.13
2018-11-07T10:57:47.695Z,9.50
2018-11-07T11:00:22.417Z,6.83
2018-11-07T11:02:56.955Z,6.90
2018-11-07T11:05:26.528Z,7.77
2018-11-07T11:07:55.789Z,6.70
2018-11-07T11:10:25.059Z,7.63
2018-11-07T11:12:54.319Z,5.53
2018-11-07T11:15:23.562Z,7.30
2018-11-07T11:17:52.844Z,6.93
2018-11-07T11:20:22.119Z,8.13
2018-11-07T11:22:51.365Z,9.50
2018-11-07T11:25:21.658Z,8.10
2018-11-07T11:27:51.069Z,10.37
2018-11-07T11:30:20.313Z,7.20
2018-11-07T11:32:49.656Z,10.67
2018-11-07T11:35:19.075Z,8.23
2018-11-07T11:37:48.204Z,6.73
2018-11-07T11:40:17.566Z,6.27
2018-11-07T11:42:46.797Z,6.97
2018-11-07T11:45:17.133Z,6.10
2018-11-07T11:47:46.851Z,8.20
2018-11-07T11:50:17.444Z,6.43
2018-11-07T11:52:47.674Z,7.57
2018-11-07T11:55:17.133Z,6.50
2018-11-07T11:57:46.928Z,6.87
2018-11-07T12:00:17.643Z,6.67
2018-11-07T12:02:47.282Z,8.27
2018-11-07T12:05:17.524Z,9.03
2018-11-07T12:07:46.789Z,6.47
2018-11-07T12:10:20.275Z,7.87
2018-11-07T12:12:50.939Z,6.57
2018-11-07T12:15:21.193Z,7.37
2018-11-07T12:17:50.503Z,10.67
2018-11-07T12:20:19.831Z,6.67
2018-11-07T12:22:49.176Z,5.67
2018-11-07T12:25:19.460Z,6.23
2018-11-07T12:27:48.693Z,23.13
2018-11-07T12:30:19.434Z,7.30
2018-11-07T12:32:49.736Z,6.53
2018-11-07T12:35:19.533Z,5.70
2018-11-07T12:37:48.844Z,7.57
2018-11-07T12:40:18.733Z,4.90
2018-11-07T12:42:47.994Z,7.50
2018-11-07T12:45:17.797Z,7.23
2018-11-07T12:47:47.169Z,8.43
2018-11-07T12:50:17.997Z,4.93
2018-11-07T12:52:47.447Z,6.80
2018-11-07T12:55:17.396Z,5.57
2018-11-07T12:57:46.801Z,6.60
2018-11-07T13:00:19.445Z,6.77
2018-11-07T13:02:48.795Z,6.17
2018-11-07T13:05:19.159Z,6.40
2018-11-07T13:07:49.228Z,6.40
2018-11-07T13:10:19.703Z,5.77
2018-11-07T13:12:49.678Z,7.27
2018-11-07T13:15:19.157Z,7.87
2018-11-07T13:17:49.219Z,6.63
2018-11-07T13:20:22.270Z,6.07
2018-11-07T13:22:52.615Z,5.83
2018-11-07T13:25:22.376Z,6.43
2018-11-07T13:27:51.658Z,5.20
2018-11-07T13:30:21.854Z,7.00
2018-11-07T13:32:51.158Z,5.23
2018-11-07T13:35:20.842Z,6.70
2018-11-07T13:37:50.855Z,5.10
2018-11-07T13:40:22.268Z,6.40
2018-11-07T13:42:51.581Z,5.67
2018-11-07T13:45:22.017Z,4.97
2018-11-07T13:47:52.483Z,4.97
2018-11-07T13:50:21.863Z,4.93
2018-11-07T13:52:51.341Z,4.90
2018-11-07T13:55:20.607Z,7.07
2018-11-07T13:57:49.944Z,4.57
2018-11-07T14:00:23.289Z,4.50
2018-11-07T14:02:53.507Z,4.60
2018-11-07T14:05:22.940Z,5.43
2018-11-07T14:07:52.101Z,8.10
2018-11-07T14:10:23.241Z,5.13
2018-11-07T14:12:53.083Z,5.90
2018-11-07T14:15:22.423Z,5.00
2018-11-07T14:17:51.945Z,4.83
2018-11-07T14:20:21.339Z,6.90
2018-11-07T14:22:50.589Z,6.10
2018-11-07T14:25:19.920Z,4.97
2018-11-07T14:27:49.330Z,4.90
2018-11-07T14:30:19.798Z,6.23
2018-11-07T14:32:52.051Z,4.80
2018-11-07T14:35:21.735Z,6.90
2018-11-07T14:37:51.352Z,7.93
2018-11-07T14:40:20.642Z,5.33
2018-11-07T14:42:49.937Z,6.20
2018-11-07T14:45:19.295Z,5.53
2018-11-07T14:47:48.616Z,5.40
2018-11-07T14:50:17.819Z,7.20
2018-11-07T14:52:47.104Z,5.67
2018-11-07T14:55:16.405Z,7.93
2018-11-07T14:57:45.668Z,5.77
2018-11-07T15:00:16.474Z,8.60
2018-11-07T15:02:46.424Z,5.47
2018-11-07T15:05:16.753Z,5.87
2018-11-07T15:07:46.183Z,4.87
2018-11-07T15:10:16.489Z,4.50
2018-11-07T15:12:45.775Z,5.20
2018-11-07T15:15:16.417Z,3.40
2018-11-07T15:17:45.857Z,3.40
2018-11-07T15:20:16.050Z,4.03
2018-11-07T15:22:45.328Z,4.53
2018-11-07T15:25:15.515Z,3.50
2018-11-07T15:27:45.767Z,4.43
2018-11-07T15:30:15.917Z,3.63
2018-11-07T15:32:45.641Z,2.90
2018-11-07T15:35:14.989Z,5.03
2018-11-07T15:37:44.216Z,6.77
2018-11-07T15:40:16.666Z,4.30
2018-11-07T15:42:46.421Z,5.07
2018-11-07T15:45:16.923Z,4.60
2018-11-07T15:47:46.299Z,6.40
2018-11-07T15:50:20.785Z,9.67
2018-11-07T15:52:50.674Z,4.97
2018-11-07T15:55:20.013Z,6.53
2018-11-07T15:57:49.233Z,5.77
2018-11-07T16:00:19.296Z,7.13
2018-11-07T16:02:48.530Z,5.93
2018-11-07T16:05:18.032Z,7.70
2018-11-07T16:07:47.265Z,7.37
2018-11-07T16:10:16.832Z,6.47
2018-11-07T16:12:46.131Z,5.40
2018-11-07T16:15:16.864Z,6.97
2018-11-07T16:17:46.410Z,7.27
2018-11-07T16:20:17.226Z,7.80
2018-11-07T16:22:47.172Z,8.47
2018-11-07T16:25:16.447Z,8.70
2018-11-07T16:27:45.937Z,6.30
2018-11-07T16:30:16.700Z,6.50
2018-11-07T16:32:45.934Z,6.03
2018-11-07T16:35:15.524Z,5.00
2018-11-07T16:37:44.877Z,7.37
2018-11-07T16:40:15.573Z,6.30
2018-11-07T16:42:45.175Z,4.63
2018-11-07T16:45:15.285Z,5.97
2018-11-07T16:47:44.791Z,4.87
2018-11-07T16:50:15.087Z,5.00
2018-11-07T16:52:44.566Z,3.37
2018-11-07T16:55:16.114Z,5.53
2018-11-07T16:57:47.567Z,4.23
2018-11-07T17:00:20.400Z,4.27
2018-11-07T17:02:50.353Z,5.43
2018-11-07T17:05:20.106Z,3.77
2018-11-07T17:07:49.639Z,4.30
2018-11-07T17:10:18.923Z,3.83
2018-11-07T17:12:48.207Z,3.10
2018-11-07T17:15:17.477Z,7.07
2018-11-07T17:17:47.813Z,3.10
2018-11-07T17:20:17.188Z,4.83
2018-11-07T17:22:46.442Z,6.83
2018-11-07T17:25:17.438Z,17.00
2018-11-07T17:27:46.809Z,7.93
2018-11-07T17:30:17.414Z,6.27
2018-11-07T17:32:46.620Z,5.87
2018-11-07T17:35:17.190Z,6.37
2018-11-07T17:37:46.583Z,6.03
2018-11-07T17:40:19.035Z,4.20
2018-11-07T17:42:48.523Z,4.70
2018-11-07T17:45:19.192Z,3.80
2018-11-07T17:47:49.278Z,4.10
2018-11-07T17:50:19.376Z,5.17
2018-11-07T17:52:49.047Z,3.77
2018-11-07T17:55:19.004Z,6.80
2018-11-07T17:57:48.325Z,5.97
2018-11-07T18:00:19.050Z,4.30
2018-11-07T18:02:48.470Z,6.13
2018-11-07T18:05:17.755Z,3.50
2018-11-07T18:07:47.059Z,4.90
2018-11-07T18:10:18.235Z,4.60
2018-11-07T18:12:47.820Z,5.67
2018-11-07T18:15:17.128Z,5.43
2018-11-07T18:17:46.355Z,4.03
2018-11-07T18:20:16.544Z,4.93
2018-11-07T18:22:46.464Z,4.30
2018-11-07T18:25:16.600Z,3.47
2018-11-07T18:27:45.996Z,6.43
2018-11-07T18:30:16.523Z,4.13
2018-11-07T18:32:46.584Z,3.63
2018-11-07T18:35:17.482Z,5.37
2018-11-07T18:37:47.137Z,5.70
2018-11-07T18:40:17.896Z,5.30
2018-11-07T18:42:47.196Z,5.63
2018-11-07T18:45:16.686Z,6.43
2018-11-07T18:47:46.995Z,6.07
2018-11-07T18:50:17.812Z,6.60
2018-11-07T18:52:46.946Z,6.33
2018-11-07T18:55:16.966Z,7.67
2018-11-07T18:57:46.677Z,7.20
2018-11-07T19:00:17.435Z,9.17
2018-11-07T19:02:47.207Z,9.67
2018-11-07T19:05:16.487Z,9.87
2018-11-07T19:07:45.997Z,9.50
2018-11-07T19:10:17.312Z,9.47
2018-11-07T19:12:47.352Z,8.53
2018-11-07T19:15:17.097Z,9.77
2018-11-07T19:17:47.218Z,9.50
2018-11-07T19:20:17.222Z,7.97
2018-11-07T19:22:46.417Z,9.37
2018-11-07T19:25:16.945Z,7.77
2018-11-07T19:27:46.290Z,11.17
2018-11-07T19:30:16.797Z,8.87
2018-11-07T19:32:47.005Z,9.33
2018-11-07T19:35:17.444Z,10.33
2018-11-07T19:37:47.327Z,9.10
2018-11-07T19:40:18.243Z,8.57
2018-11-07T19:42:47.626Z,8.33
2018-11-07T19:45:18.232Z,10.03
2018-11-07T19:47:47.881Z,8.80
2018-11-07T19:50:18.464Z,8.37
2018-11-07T19:52:49.026Z,8.20
2018-11-07T19:55:21.211Z,6.53
2018-11-07T19:57:55.375Z,7.70
2018-11-07T20:00:24.762Z,7.70
2018-11-07T20:02:54.180Z,9.27
2018-11-07T20:05:23.751Z,9.47
2018-11-07T20:07:53.620Z,6.33
2018-11-07T20:10:23.425Z,8.53
2018-11-07T20:12:52.859Z,6.60
2018-11-07T20:15:22.404Z,8.83
2018-11-07T20:17:52.020Z,12.13
2018-11-07T20:20:21.732Z,6.93
2018-11-07T20:22:51.351Z,7.77
2018-11-07T20:25:20.884Z,6.87
2018-11-07T20:27:50.842Z,7.47
2018-11-07T20:30:21.406Z,6.80
2018-11-07T20:32:50.928Z,8.17
2018-11-07T20:35:21.544Z,8.17
2018-11-07T20:37:51.321Z,8.90
2018-11-07T20:40:21.956Z,8.93
2018-11-07T20:42:51.453Z,8.17
2018-11-07T20:45:20.908Z,8.83
2018-11-07T20:47:50.308Z,8.73
2018-11-07T20:50:20.893Z,8.03
2018-11-07T20:52:50.329Z,9.23
2018-11-07T20:55:19.734Z,8.10
2018-11-07T20:57:49.300Z,7.17
2018-11-07T21:00:21.177Z,8.33
2018-11-07T21:02:50.735Z,6.87
2018-11-07T21:05:20.115Z,6.90
2018-11-07T21:07:49.601Z,7.30
2018-11-07T21:10:20.425Z,7.93
2018-11-07T21:12:50.315Z,8.00
2018-11-07T21:15:20.496Z,7.50
2018-11-07T21:17:49.932Z,9.47
2018-11-07T21:20:19.449Z,7.60
2018-11-07T21:22:49.104Z,6.77
2018-11-07T21:25:18.566Z,7.67
2018-11-07T21:27:47.984Z,6.73
2018-11-07T21:30:17.489Z,6.43
2018-11-07T21:32:46.872Z,6.63
2018-11-07T21:35:16.252Z,6.93
2018-11-07T21:37:45.624Z,9.60
2018-11-07T21:40:16.381Z,8.33
2018-11-07T21:42:46.661Z,8.80
2018-11-07T21:45:16.463Z,9.03
2018-11-07T21:47:45.789Z,9.53
2018-11-07T21:50:16.630Z,10.63
2018-11-07T21:52:45.890Z,8.13
2018-11-07T21:55:15.148Z,10.87
2018-11-07T21:57:44.486Z,8.80
2018-11-07T22:00:15.932Z,9.40
2018-11-07T22:02:45.533Z,7.47
2018-11-07T22:05:16.203Z,8.00
2018-11-07T22:07:45.576Z,8.33
2018-11-07T22:10:16.108Z,8.27
2018-11-07T22:12:45.461Z,7.10
2018-11-07T22:15:14.728Z,8.27
2018-11-07T22:17:44.053Z,8.07
2018-11-07T22:20:15.748Z,10.73
2018-11-07T22:22:45.626Z,7.80
2018-11-07T22:25:15.139Z,11.67
2018-11-07T22:27:44.455Z,8.30
2018-11-07T22:30:15.926Z,9.47
2018-11-07T22:32:45.238Z,7.90
2018-11-07T22:35:16.046Z,9.63
2018-11-07T22:37:46.026Z,8.73
2018-11-07T22:40:16.802Z,8.50
2018-11-07T22:42:46.033Z,8.83
2018-11-07T22:45:15.677Z,7.27
2018-11-07T22:47:44.925Z,9.57
2018-11-07T22:50:15.189Z,8.07
2018-11-07T22:52:45.243Z,8.67
2018-11-07T22:55:14.478Z,9.83
2018-11-07T22:57:43.702Z,10.80
2018-11-07T23:00:20.353Z,9.20
2018-11-07T23:02:51.427Z,7.97
2018-11-07T23:05:20.775Z,9.40
2018-11-07T23:07:50.623Z,8.13
2018-11-07T23:10:19.879Z,9.23
2018-11-07T23:12:49.671Z,9.77
2018-11-07T23:15:24.385Z,7.47
2018-11-07T23:17:53.765Z,8.90
2018-11-07T23:20:23.093Z,12.07
2018-11-07T23:22:52.423Z,9.67
2018-11-07T23:25:21.747Z,8.17
2018-11-07T23:27:51.013Z,6.90
2018-11-07T23:30:20.307Z,6.93
2018-11-07T23:32:49.588Z,8.80
2018-11-07T23:35:18.874Z,6.43
2018-11-07T23:37:48.273Z,7.23
2018-11-07T23:40:17.629Z,5.93
2018-11-07T23:42:46.915Z,6.13
2018-11-07T23:45:16.269Z,5.53
2018-11-07T23:47:45.545Z,5.47
2018-11-07T23:50:14.897Z,6.53
2018-11-07T23:52:47.319Z,4.50
2018-11-07T23:55:17.655Z,5.37
2018-11-07T23:57:46.925Z,4.90
